createdAt,value
2018-05-03T00:01:52.417Z,9.20
2018-05-03T00:04:25.659Z,9.20
2018-05-03T00:06:58.163Z,9.20
2018-05-03T00:09:30.568Z,9.10
2018-05-03T00:12:03.740Z,9.00
2018-05-03T00:14:36.610Z,9.00
2018-05-03T00:17:09.075Z,9.00
2018-05-03T00:19:41.834Z,9.00
2018-05-03T00:22:14.229Z,9.10
2018-05-03T00:24:46.638Z,9.10
2018-05-03T00:27:19.455Z,9.00
2018-05-03T00:29:52.817Z,9.00
2018-05-03T00:32:25.256Z,8.90
2018-05-03T00:34:58.574Z,8.90
2018-05-03T00:37:31.802Z,8.90
2018-05-03T00:40:04.317Z,8.90
2018-05-03T00:42:36.671Z,8.90
2018-05-03T00:45:09.029Z,8.80
2018-05-03T00:47:41.448Z,8.80
2018-05-03T00:50:14.524Z,8.70
2018-05-03T00:52:52.069Z,8.70
2018-05-03T00:55:24.498Z,8.70
2018-05-03T00:57:56.966Z,8.80
2018-05-03T01:00:29.560Z,8.70
2018-05-03T01:03:01.984Z,8.70
2018-05-03T01:05:34.629Z,8.80
2018-05-03T01:08:08.425Z,8.60
2018-05-03T01:10:41.153Z,8.60
2018-05-03T01:13:14.464Z,8.60
2018-05-03T01:15:47.660Z,8.60
2018-05-03T01:18:20.068Z,8.60
2018-05-03T01:20:52.860Z,8.50
2018-05-03T01:23:25.299Z,8.50
2018-05-03T01:25:57.744Z,8.50
2018-05-03T01:28:30.118Z,8.40
2018-05-03T01:31:02.544Z,8.50
2018-05-03T01:33:34.921Z,8.50
2018-05-03T01:36:19.785Z,8.60
2018-05-03T01:38:52.343Z,8.50
2018-05-03T01:41:25.235Z,8.50
2018-05-03T01:43:57.628Z,8.50
2018-05-03T01:46:30.029Z,8.50
2018-05-03T01:49:02.604Z,8.50
2018-05-03T01:51:35.201Z,8.50
2018-05-03T01:54:08.441Z,8.30
2018-05-03T01:56:41.099Z,8.30
2018-05-03T01:59:14.483Z,8.30
2018-05-03T02:01:47.202Z,8.30
2018-05-03T02:04:20.561Z,8.30
2018-05-03T02:06:53.699Z,8.30
2018-05-03T02:09:27.020Z,8.30
2018-05-03T02:11:59.733Z,8.30
2018-05-03T02:14:32.125Z,8.30
2018-05-03T02:17:04.625Z,8.30
2018-05-03T02:19:37.258Z,8.30
2018-05-03T02:22:17.854Z,8.20
2018-05-03T02:24:50.422Z,8.20
2018-05-03T02:27:23.597Z,8.20
2018-05-03T02:29:56.803Z,8.10
2018-05-03T02:32:29.318Z,8.10
2018-05-03T02:35:02.754Z,8.10
2018-05-03T02:37:35.211Z,8.10
2018-05-03T02:40:07.577Z,8.10
2018-05-03T02:42:40.061Z,8.10
2018-05-03T02:45:12.505Z,8.00
2018-05-03T02:47:45.061Z,8.00
2018-05-03T02:50:17.865Z,7.90
2018-05-03T02:52:50.639Z,7.90
2018-05-03T02:55:23.367Z,7.90
2018-05-03T02:58:14.300Z,7.90
2018-05-03T03:01:05.091Z,8.00
2018-05-03T03:03:56.068Z,8.00
2018-05-03T03:06:59.541Z,8.00
2018-05-03T03:09:51.043Z,8.00
2018-05-03T03:12:53.544Z,7.90
2018-05-03T03:15:40.175Z,7.80
2018-05-03T03:18:31.736Z,7.70
2018-05-03T03:21:22.640Z,7.70
2018-05-03T03:24:13.635Z,7.70
2018-05-03T03:27:04.583Z,7.70
2018-05-03T03:29:49.464Z,7.70
2018-05-03T03:32:34.292Z,7.70
2018-05-03T03:38:34.124Z,7.70
2018-05-03T03:41:18.990Z,7.70
2018-05-03T03:44:03.839Z,7.80
2018-05-03T03:46:36.764Z,7.90
2018-05-03T03:49:09.321Z,7.90
2018-05-03T03:51:42.216Z,8.00
2018-05-03T03:54:14.724Z,8.00
2018-05-03T03:56:47.170Z,8.00
2018-05-03T03:59:19.783Z,8.00
2018-05-03T04:01:52.232Z,7.90
2018-05-03T04:04:25.068Z,7.90
2018-05-03T04:06:57.582Z,7.80
2018-05-03T04:09:30.015Z,7.80
2018-05-03T04:12:02.554Z,7.80
2018-05-03T04:14:35.190Z,7.80
2018-05-03T04:17:07.826Z,7.80
2018-05-03T04:19:52.466Z,7.90
2018-05-03T04:22:37.491Z,8.00
2018-05-03T04:25:22.436Z,8.10
2018-05-03T04:27:54.927Z,8.20
2018-05-03T04:30:28.182Z,8.20
2018-05-03T04:33:01.612Z,8.30
2018-05-03T04:35:34.082Z,8.30
2018-05-03T04:38:07.360Z,8.30
2018-05-03T04:40:39.881Z,8.40
2018-05-03T04:43:12.500Z,8.50
2018-05-03T04:45:45.712Z,8.70
2018-05-03T04:48:19.091Z,8.80
2018-05-03T04:50:51.814Z,8.80
2018-05-03T04:53:24.261Z,8.90
2018-05-03T04:55:57.562Z,9.00
2018-05-03T04:58:30.211Z,9.00
2018-05-03T05:01:03.465Z,9.20
2018-05-03T05:03:36.216Z,9.10
2018-05-03T05:06:08.832Z,9.20
2018-05-03T05:08:41.442Z,9.20
2018-05-03T05:11:13.941Z,9.30
2018-05-03T05:13:47.316Z,9.50
2018-05-03T05:16:19.717Z,9.40
2018-05-03T05:18:53.090Z,9.50
2018-05-03T05:21:25.834Z,9.50
2018-05-03T05:23:58.334Z,9.60
2018-05-03T05:26:30.764Z,9.60
2018-05-03T05:29:03.145Z,9.60
2018-05-03T05:31:35.722Z,9.60
2018-05-03T05:34:08.487Z,9.70
2018-05-03T05:36:41.078Z,9.70
2018-05-03T05:39:13.810Z,9.80
2018-05-03T05:41:46.472Z,9.80
2018-05-03T05:44:18.904Z,9.90
2018-05-03T05:46:51.378Z,10.00
2018-05-03T05:49:24.760Z,10.20
2018-05-03T05:51:57.470Z,10.20
2018-05-03T05:54:30.605Z,10.30
2018-05-03T05:57:03.865Z,10.40
2018-05-03T05:59:36.262Z,10.40
2018-05-03T06:02:09.520Z,10.60
2018-05-03T06:04:42.266Z,10.60
2018-05-03T06:07:14.690Z,10.70
2018-05-03T06:09:47.428Z,10.80
2018-05-03T06:12:19.956Z,10.90
2018-05-03T06:14:52.602Z,11.00
2018-05-03T06:17:25.335Z,11.00
2018-05-03T06:19:57.703Z,11.10
2018-05-03T06:22:30.951Z,11.20
2018-05-03T06:25:04.941Z,11.30
2018-05-03T06:27:37.291Z,11.30
2018-05-03T06:30:10.465Z,11.40
2018-05-03T06:32:43.592Z,11.50
2018-05-03T06:35:15.985Z,11.40
2018-05-03T06:37:48.469Z,11.50
2018-05-03T06:40:21.632Z,11.60
2018-05-03T06:42:54.072Z,11.50
2018-05-03T06:45:26.545Z,11.60
2018-05-03T06:47:59.045Z,11.60
2018-05-03T06:50:33.296Z,11.70
2018-05-03T06:53:05.743Z,11.70
2018-05-03T06:55:39.042Z,11.80
2018-05-03T06:58:11.687Z,11.80
2018-05-03T07:00:44.186Z,11.90
2018-05-03T07:03:17.468Z,11.90
2018-05-03T07:05:49.987Z,12.00
2018-05-03T07:08:23.710Z,12.20
2018-05-03T07:10:56.369Z,12.30
2018-05-03T07:13:28.811Z,12.30
2018-05-03T07:16:02.129Z,12.30
2018-05-03T07:18:34.711Z,12.30
2018-05-03T07:21:07.271Z,12.30
2018-05-03T07:23:40.053Z,12.40
2018-05-03T07:26:12.657Z,12.50
2018-05-03T07:28:45.200Z,12.60
2018-05-03T07:31:18.552Z,13.00
2018-05-03T07:33:51.646Z,13.10
2018-05-03T07:36:24.380Z,13.10
2018-05-03T07:38:57.016Z,13.40
2018-05-03T07:41:29.478Z,13.50
2018-05-03T07:44:02.093Z,13.60
2018-05-03T07:46:35.391Z,13.80
2018-05-03T07:49:08.544Z,13.80
2018-05-03T07:51:41.192Z,13.80
2018-05-03T07:54:13.661Z,13.70
2018-05-03T07:56:46.387Z,13.60
2018-05-03T07:59:19.179Z,13.50
2018-05-03T08:01:51.706Z,13.50
2018-05-03T08:04:24.170Z,13.60
2018-05-03T08:06:56.852Z,13.70
2018-05-03T08:09:29.293Z,13.90
2018-05-03T08:12:06.855Z,13.80
2018-05-03T08:14:39.390Z,13.90
2018-05-03T08:17:12.043Z,14.10
2018-05-03T08:19:44.538Z,14.00
2018-05-03T08:22:17.715Z,13.80
2018-05-03T08:24:50.348Z,13.80
2018-05-03T08:27:23.438Z,13.70
2018-05-03T08:29:55.798Z,13.70
2018-05-03T08:32:28.316Z,13.70
2018-05-03T08:35:01.058Z,13.70
2018-05-03T08:37:33.690Z,13.90
2018-05-03T08:40:06.142Z,14.00
2018-05-03T08:42:38.717Z,14.20
2018-05-03T08:45:11.209Z,14.40
2018-05-03T08:47:44.291Z,14.80
2018-05-03T08:50:16.943Z,14.80
2018-05-03T08:52:49.354Z,14.90
2018-05-03T08:55:21.788Z,15.10
2018-05-03T08:57:54.247Z,15.10
2018-05-03T09:00:26.691Z,15.20
2018-05-03T09:02:59.829Z,15.50
2018-05-03T09:05:33.041Z,15.50
2018-05-03T09:08:05.510Z,15.50
2018-05-03T09:10:37.965Z,15.20
2018-05-03T09:13:10.362Z,15.10
2018-05-03T09:15:42.895Z,15.00
2018-05-03T09:18:15.481Z,15.00
2018-05-03T09:20:48.847Z,15.00
2018-05-03T09:23:21.577Z,15.00
2018-05-03T09:25:54.186Z,15.00
2018-05-03T09:28:26.813Z,14.80
2018-05-03T09:30:59.954Z,14.80
2018-05-03T09:33:32.531Z,14.80
2018-05-03T09:36:05.036Z,14.90
2018-05-03T09:38:37.686Z,14.90
2018-05-03T09:41:10.306Z,14.90
2018-05-03T09:43:42.927Z,15.00
2018-05-03T09:46:15.312Z,15.20
2018-05-03T09:48:47.716Z,15.40
2018-05-03T09:51:20.450Z,15.50
2018-05-03T09:53:53.022Z,15.60
2018-05-03T09:56:25.538Z,15.60
2018-05-03T09:58:58.889Z,15.80
2018-05-03T10:01:31.422Z,15.80
2018-05-03T10:04:04.023Z,15.80
2018-05-03T10:06:36.960Z,15.90
2018-05-03T10:09:09.400Z,15.80
2018-05-03T10:11:42.091Z,15.60
2018-05-03T10:14:14.687Z,15.80
2018-05-03T10:16:47.921Z,15.80
2018-05-03T10:19:20.381Z,15.90
2018-05-03T10:21:52.884Z,15.90
2018-05-03T10:24:25.753Z,15.80
2018-05-03T10:26:58.273Z,15.70
2018-05-03T10:29:31.485Z,15.60
2018-05-03T10:32:05.372Z,15.70
2018-05-03T10:34:38.655Z,16.00
2018-05-03T10:37:11.141Z,15.90
2018-05-03T10:39:44.373Z,16.40
2018-05-03T10:42:17.094Z,16.40
2018-05-03T10:44:49.691Z,16.50
2018-05-03T10:47:22.376Z,16.50
2018-05-03T10:49:55.009Z,16.50
2018-05-03T10:52:27.599Z,16.70
2018-05-03T10:55:00.117Z,16.80
2018-05-03T10:57:32.773Z,16.80
2018-05-03T11:00:05.898Z,16.90
2018-05-03T11:02:38.410Z,16.90
2018-05-03T11:05:11.775Z,17.00
2018-05-03T11:07:44.393Z,16.90
2018-05-03T11:10:17.081Z,16.90
2018-05-03T11:12:49.558Z,16.90
2018-05-03T11:15:21.998Z,16.90
2018-05-03T11:17:54.595Z,16.80
2018-05-03T11:20:27.126Z,16.80
2018-05-03T11:22:59.475Z,16.80
2018-05-03T11:25:31.937Z,16.80
2018-05-03T11:28:05.092Z,16.80
2018-05-03T11:30:37.637Z,16.80
2018-05-03T11:33:10.936Z,16.90
2018-05-03T11:35:43.512Z,16.90
2018-05-03T11:38:15.862Z,17.00
2018-05-03T11:40:48.290Z,17.10
2018-05-03T11:43:20.774Z,17.10
2018-05-03T11:45:53.630Z,17.20
2018-05-03T11:48:26.038Z,17.30
2018-05-03T11:50:58.466Z,17.50
2018-05-03T11:53:31.639Z,17.70
2018-05-03T11:56:04.157Z,17.70
2018-05-03T11:58:36.525Z,17.70
2018-05-03T12:01:08.990Z,17.80
2018-05-03T12:03:42.351Z,17.90
2018-05-03T12:06:15.598Z,18.10
2018-05-03T12:08:48.269Z,18.10
2018-05-03T12:11:21.562Z,18.40
2018-05-03T12:13:54.290Z,18.40
2018-05-03T12:16:26.882Z,18.60
2018-05-03T12:19:00.335Z,18.70
2018-05-03T12:21:32.861Z,18.70
2018-05-03T12:24:05.551Z,18.70
2018-05-03T12:26:38.711Z,18.40
2018-05-03T12:29:11.345Z,18.40
2018-05-03T12:31:43.696Z,18.40
2018-05-03T12:34:16.936Z,18.30
2018-05-03T12:36:49.677Z,18.30
2018-05-03T12:39:23.180Z,18.40
2018-05-03T12:41:56.237Z,18.30
2018-05-03T12:44:28.851Z,18.40
2018-05-03T12:47:01.207Z,18.30
2018-05-03T12:49:33.708Z,18.40
2018-05-03T12:52:06.061Z,18.40
2018-05-03T12:54:38.500Z,18.60
2018-05-03T12:57:10.959Z,18.70
2018-05-03T12:59:44.205Z,18.90
2018-05-03T13:02:16.721Z,18.80
2018-05-03T13:04:49.492Z,18.70
2018-05-03T13:07:21.913Z,18.60
2018-05-03T13:09:54.367Z,18.50
2018-05-03T13:12:27.669Z,19.40
2018-05-03T13:15:00.251Z,19.40
2018-05-03T13:17:32.857Z,20.00
2018-05-03T13:20:05.447Z,20.40
2018-05-03T13:22:37.981Z,20.30
2018-05-03T13:25:10.378Z,20.10
2018-05-03T13:27:42.803Z,20.30
2018-05-03T13:30:15.273Z,20.50
2018-05-03T13:32:47.911Z,20.50
2018-05-03T13:35:21.126Z,20.90
2018-05-03T13:37:53.991Z,20.90
2018-05-03T13:40:26.431Z,20.90
2018-05-03T13:42:58.966Z,21.00
2018-05-03T13:45:32.227Z,20.00
2018-05-03T13:48:04.660Z,20.00
2018-05-03T13:50:37.995Z,19.90
2018-05-03T13:53:10.576Z,19.90
2018-05-03T13:55:43.311Z,19.80
2018-05-03T13:58:15.952Z,20.20
2018-05-03T14:00:48.611Z,19.90
2018-05-03T14:03:21.036Z,19.50
2018-05-03T14:05:53.691Z,19.00
2018-05-03T14:08:26.148Z,19.00
2018-05-03T14:10:59.073Z,18.80
2018-05-03T14:13:32.087Z,18.90
2018-05-03T14:16:05.323Z,18.70
2018-05-03T14:18:38.502Z,18.60
2018-05-03T14:21:11.212Z,18.60
2018-05-03T14:23:43.877Z,18.40
2018-05-03T14:26:17.049Z,18.10
2018-05-03T14:28:49.632Z,18.10
2018-05-03T14:31:22.112Z,17.90
2018-05-03T14:33:54.594Z,17.90
2018-05-03T14:36:27.000Z,18.20
2018-05-03T14:38:59.809Z,18.60
2018-05-03T14:41:32.308Z,18.80
2018-05-03T14:44:05.146Z,18.90
2018-05-03T14:46:37.876Z,19.00
2018-05-03T14:49:11.103Z,19.50
2018-05-03T14:51:43.759Z,19.60
2018-05-03T14:54:16.508Z,19.80
2018-05-03T14:56:49.263Z,20.10
2018-05-03T14:59:22.132Z,20.30
2018-05-03T15:01:54.897Z,20.30
2018-05-03T15:04:27.437Z,20.30
2018-05-03T15:07:00.070Z,20.30
2018-05-03T15:09:33.418Z,20.70
2018-05-03T15:12:06.393Z,20.70
2018-05-03T15:14:38.933Z,20.90
2018-05-03T15:17:11.471Z,21.10
2018-05-03T15:19:44.172Z,21.00
2018-05-03T15:22:16.751Z,21.30
2018-05-03T15:24:49.491Z,22.00
2018-05-03T15:27:22.092Z,22.80
2018-05-03T15:29:54.504Z,23.60
2018-05-03T15:32:27.118Z,24.20
2018-05-03T15:34:59.728Z,24.30
2018-05-03T15:37:33.218Z,23.10
2018-05-03T15:40:05.683Z,23.10
2018-05-03T15:42:38.224Z,22.60
2018-05-03T15:45:10.830Z,22.40
2018-05-03T15:47:43.603Z,21.70
2018-05-03T15:50:16.302Z,21.50
2018-05-03T15:52:49.513Z,20.80
2018-05-03T15:55:21.943Z,20.70
2018-05-03T15:57:54.556Z,20.30
2018-05-03T16:00:26.985Z,20.10
2018-05-03T16:03:00.306Z,19.90
2018-05-03T16:05:32.990Z,19.90
2018-05-03T16:08:05.847Z,19.70
2018-05-03T16:10:38.264Z,19.50
2018-05-03T16:13:11.629Z,19.50
2018-05-03T16:15:44.324Z,19.50
2018-05-03T16:18:17.125Z,19.50
2018-05-03T16:20:49.813Z,19.60
2018-05-03T16:23:22.635Z,20.10
2018-05-03T16:25:55.153Z,21.00
2018-05-03T16:28:27.760Z,21.80
2018-05-03T16:31:00.942Z,22.80
2018-05-03T16:33:34.313Z,22.70
2018-05-03T16:36:06.822Z,22.70
2018-05-03T16:38:39.295Z,22.50
2018-05-03T16:41:12.431Z,22.60
2018-05-03T16:43:45.146Z,23.10
2018-05-03T16:46:17.840Z,22.80
2018-05-03T16:48:51.215Z,21.90
2018-05-03T16:51:23.922Z,21.90
2018-05-03T16:53:56.594Z,21.70
2018-05-03T16:56:29.297Z,21.10
2018-05-03T16:59:01.962Z,20.40
2018-05-03T17:01:34.848Z,19.80
2018-05-03T17:04:07.466Z,19.30
2018-05-03T17:06:40.112Z,18.80
2018-05-03T17:09:12.826Z,18.30
2018-05-03T17:11:45.613Z,18.10
2018-05-03T17:14:18.120Z,17.70
2018-05-03T17:16:50.798Z,17.50
2018-05-03T17:19:23.276Z,17.30
2018-05-03T17:21:56.771Z,17.00
2018-05-03T17:24:29.359Z,17.00
2018-05-03T17:27:02.133Z,16.90
2018-05-03T17:29:34.842Z,16.70
2018-05-03T17:32:07.613Z,16.60
2018-05-03T17:34:40.138Z,16.40
2018-05-03T17:37:13.563Z,16.20
2018-05-03T17:39:46.333Z,16.20
2018-05-03T17:42:19.140Z,16.00
2018-05-03T17:44:51.816Z,15.90
2018-05-03T17:47:24.476Z,15.80
2018-05-03T17:49:56.928Z,15.70
2018-05-03T17:52:29.437Z,15.50
2018-05-03T17:55:02.386Z,15.40
2018-05-03T17:57:35.184Z,15.30
2018-05-03T18:00:08.528Z,15.10
2018-05-03T18:02:41.189Z,15.20
2018-05-03T18:05:13.840Z,15.00
2018-05-03T18:07:46.632Z,14.90
2018-05-03T18:10:20.067Z,14.70
2018-05-03T18:12:52.708Z,14.70
2018-05-03T18:15:25.898Z,14.60
2018-05-03T18:17:58.759Z,14.60
2018-05-03T18:20:31.628Z,14.50
2018-05-03T18:23:05.212Z,14.30
2018-05-03T18:25:37.718Z,14.30
2018-05-03T18:28:11.274Z,14.20
2018-05-03T18:30:44.637Z,14.10
2018-05-03T18:33:17.394Z,14.10
2018-05-03T18:35:50.028Z,13.90
2018-05-03T18:38:22.833Z,13.90
2018-05-03T18:40:55.589Z,13.80
2018-05-03T18:43:28.154Z,13.60
2018-05-03T18:46:00.875Z,13.50
2018-05-03T18:48:33.702Z,13.40
2018-05-03T18:51:06.238Z,13.20
2018-05-03T18:53:38.889Z,13.10
2018-05-03T18:56:12.839Z,12.90
2018-05-03T18:58:45.462Z,12.80
2018-05-03T19:01:18.171Z,12.80
2018-05-03T19:03:50.801Z,12.70
2018-05-03T19:06:23.565Z,12.60
2018-05-03T19:08:56.303Z,12.50
2018-05-03T19:11:29.007Z,12.40
2018-05-03T19:14:02.148Z,12.30
2018-05-03T19:16:34.862Z,12.20
2018-05-03T19:19:07.577Z,12.10
2018-05-03T19:21:40.673Z,12.00
2018-05-03T19:24:13.450Z,12.00
2018-05-03T19:26:45.952Z,11.90
2018-05-03T19:29:18.576Z,11.90
2018-05-03T19:31:51.310Z,11.80
2018-05-03T19:34:23.912Z,11.70
2018-05-03T19:36:56.607Z,11.60
2018-05-03T19:39:29.119Z,11.40
2018-05-03T19:42:01.827Z,11.30
2018-05-03T19:44:34.526Z,11.30
2018-05-03T19:47:14.289Z,11.20
2018-05-03T19:49:47.188Z,11.10
2018-05-03T19:52:20.462Z,10.90
2018-05-03T19:54:53.018Z,10.90
2018-05-03T19:57:26.291Z,10.70
2018-05-03T19:59:59.596Z,10.60
2018-05-03T20:02:32.501Z,10.60
2018-05-03T20:05:05.315Z,10.60
2018-05-03T20:07:38.871Z,10.50
2018-05-03T20:10:11.846Z,10.40
2018-05-03T20:12:45.112Z,10.50
2018-05-03T20:15:18.809Z,10.40
2018-05-03T20:17:51.551Z,10.40
2018-05-03T20:20:24.853Z,10.40
2018-05-03T20:22:57.795Z,10.40
2018-05-03T20:25:30.341Z,10.40
2018-05-03T20:28:02.770Z,10.20
2018-05-03T20:30:35.526Z,10.10
2018-05-03T20:33:08.278Z,10.20
2018-05-03T20:35:40.868Z,10.10
2018-05-03T20:38:13.599Z,10.20
2018-05-03T20:40:46.218Z,10.20
2018-05-03T20:43:19.095Z,10.10
2018-05-03T20:45:51.941Z,9.90
2018-05-03T20:48:25.037Z,9.80
2018-05-03T20:50:57.933Z,9.80
2018-05-03T20:53:30.461Z,9.70
2018-05-03T20:56:03.331Z,9.70
2018-05-03T20:58:35.888Z,9.70
2018-05-03T21:01:08.476Z,9.60
2018-05-03T21:03:41.192Z,9.60
2018-05-03T21:06:13.623Z,9.50
2018-05-03T21:08:46.375Z,9.50
2018-05-03T21:11:19.085Z,9.40
2018-05-03T21:13:52.438Z,9.20
2018-05-03T21:16:25.220Z,9.30
2018-05-03T21:18:57.782Z,9.30
2018-05-03T21:21:30.201Z,9.20
2018-05-03T21:24:02.969Z,9.20
2018-05-03T21:26:35.551Z,9.10
2018-05-03T21:29:08.519Z,9.00
2018-05-03T21:31:41.252Z,9.00
2018-05-03T21:34:13.808Z,8.90
2018-05-03T21:36:46.449Z,8.90
2018-05-03T21:39:19.133Z,8.90
2018-05-03T21:41:52.219Z,8.80
2018-05-03T21:44:25.532Z,8.80
2018-05-03T21:46:58.334Z,8.70
2018-05-03T21:49:31.002Z,8.70
2018-05-03T21:52:03.496Z,8.60
2018-05-03T21:54:36.168Z,8.60
2018-05-03T21:57:09.629Z,8.50
2018-05-03T21:59:42.120Z,8.40
2018-05-03T22:02:14.758Z,8.40
2018-05-03T22:04:47.487Z,8.30
2018-05-03T22:07:20.029Z,8.20
2018-05-03T22:09:53.227Z,8.00
2018-05-03T22:12:25.852Z,8.00
2018-05-03T22:14:58.987Z,7.80
2018-05-03T22:17:31.904Z,7.80
2018-05-03T22:20:04.495Z,7.80
2018-05-03T22:22:37.025Z,8.00
2018-05-03T22:25:09.784Z,8.10
2018-05-03T22:27:42.346Z,8.10
2018-05-03T22:30:15.493Z,8.20
2018-05-03T22:32:47.949Z,8.20
2018-05-03T22:35:21.368Z,8.00
2018-05-03T22:37:53.716Z,8.00
2018-05-03T22:40:26.087Z,7.80
2018-05-03T22:42:59.294Z,7.80
2018-05-03T22:45:32.652Z,7.70
2018-05-03T22:48:05.285Z,7.70
2018-05-03T22:50:37.664Z,7.70
2018-05-03T22:53:10.032Z,7.70
2018-05-03T22:55:42.604Z,7.70
2018-05-03T22:58:15.313Z,7.60
2018-05-03T23:00:47.814Z,7.50
2018-05-03T23:03:20.403Z,7.40
2018-05-03T23:05:52.804Z,7.20
2018-05-03T23:08:25.194Z,7.10
2018-05-03T23:10:57.672Z,7.00
2018-05-03T23:13:30.120Z,6.90
2018-05-03T23:16:02.559Z,6.90
2018-05-03T23:18:35.605Z,6.90
2018-05-03T23:21:08.250Z,6.90
2018-05-03T23:23:40.793Z,6.80
2018-05-03T23:26:13.425Z,6.80
2018-05-03T23:28:45.850Z,6.80
2018-05-03T23:31:18.492Z,6.90
2018-05-03T23:33:50.888Z,6.90
2018-05-03T23:36:23.346Z,7.00
2018-05-03T23:38:55.844Z,6.80
2018-05-03T23:41:28.294Z,6.70
2018-05-03T23:44:01.492Z,6.60
2018-05-03T23:46:34.789Z,6.50
2018-05-03T23:49:07.337Z,6.50
2018-05-03T23:51:40.530Z,6.50
2018-05-03T23:54:12.924Z,6.40
2018-05-03T23:56:45.564Z,6.50
2018-05-03T23:59:18.007Z,6.50
